createdAt,value
2022-09-24T00:01:39.260Z,15.68
2022-09-24T00:04:10.130Z,16.88
2022-09-24T00:06:44.019Z,15.80
2022-09-24T00:09:16.410Z,16.60
2022-09-24T00:11:45.362Z,16.48
2022-09-24T00:14:13.280Z,17.55
2022-09-24T00:16:42.516Z,17.35
2022-09-24T00:19:11.591Z,16.08
2022-09-24T00:21:40.136Z,18.58
2022-09-24T00:24:10.828Z,17.55
2022-09-24T00:26:50.119Z,18.40
2022-09-24T00:29:21.566Z,16.73
2022-09-24T00:31:50.770Z,16.42
2022-09-24T00:34:19.191Z,16.80
2022-09-24T00:36:46.842Z,16.13
2022-09-24T00:39:15.367Z,16.80
2022-09-24T00:41:45.339Z,17.33
2022-09-24T00:44:40.820Z,16.55
2022-09-24T00:50:26.404Z,16.45
2022-09-24T00:53:01.714Z,15.45
2022-09-24T00:55:30.154Z,16.20
2022-09-24T00:58:00.075Z,17.70
2022-09-24T01:00:27.780Z,16.45
2022-09-24T01:03:05.507Z,16.55
2022-09-24T01:05:33.271Z,17.25
2022-09-24T01:08:00.876Z,16.08
2022-09-24T01:11:05.434Z,16.83
2022-09-24T01:13:45.138Z,16.27
2022-09-24T01:16:27.057Z,17.10
2022-09-24T01:19:22.364Z,16.00
2022-09-24T01:21:56.293Z,16.10
2022-09-24T01:24:26.884Z,16.98
2022-09-24T01:27:02.946Z,17.33
2022-09-24T01:29:50.207Z,16.05
2022-09-24T01:32:32.151Z,16.27
2022-09-24T01:35:24.243Z,16.58
2022-09-24T01:37:57.467Z,16.88
2022-09-24T01:40:27.674Z,16.65
2022-09-24T01:42:58.282Z,16.98
2022-09-24T01:45:31.738Z,17.60
2022-09-24T01:48:02.263Z,18.58
2022-09-24T01:50:33.931Z,15.93
2022-09-24T01:53:20.119Z,16.88
2022-09-24T01:55:52.228Z,17.25
2022-09-24T01:58:27.932Z,17.60
2022-09-24T02:01:01.905Z,16.90
2022-09-24T02:03:34.489Z,16.33
2022-09-24T02:06:14.891Z,16.38
2022-09-24T02:08:46.996Z,16.73
2022-09-24T02:11:24.724Z,17.05
2022-09-24T02:14:13.077Z,16.80
2022-09-24T02:16:50.626Z,16.75
2022-09-24T02:19:25.119Z,18.58
2022-09-24T02:21:53.003Z,17.02
2022-09-24T02:24:24.773Z,17.55
2022-09-24T02:26:52.212Z,16.98
2022-09-24T02:29:19.539Z,16.70
2022-09-24T02:31:52.180Z,18.33
2022-09-24T02:34:33.512Z,19.38
2022-09-24T02:37:07.420Z,16.88
2022-09-24T02:39:36.242Z,18.07
2022-09-24T02:42:05.756Z,17.55
2022-09-24T02:44:34.168Z,16.48
2022-09-24T02:47:01.803Z,17.45
2022-09-24T02:49:29.249Z,16.98
2022-09-24T02:51:56.892Z,17.70
2022-09-24T02:54:27.974Z,17.92
2022-09-24T02:56:55.509Z,18.23
2022-09-24T02:59:23.232Z,18.58
2022-09-24T03:01:50.696Z,16.65
2022-09-24T03:04:18.018Z,18.13
2022-09-24T03:06:45.303Z,18.38
2022-09-24T03:09:13.383Z,18.83
2022-09-24T03:11:41.093Z,17.20
2022-09-24T03:14:08.539Z,20.02
2022-09-24T03:16:35.880Z,19.65
2022-09-24T03:19:03.258Z,18.85
2022-09-24T03:21:30.575Z,17.90
2022-09-24T03:23:58.042Z,18.55
2022-09-24T03:26:25.371Z,18.42
2022-09-24T03:28:53.150Z,19.08
2022-09-24T03:31:20.898Z,18.23
2022-09-24T03:33:49.940Z,18.85
2022-09-24T03:36:22.884Z,17.75
2022-09-24T03:38:56.259Z,18.60
2022-09-24T03:41:25.465Z,18.58
2022-09-24T03:43:53.028Z,18.13
2022-09-24T03:46:20.566Z,18.88
2022-09-24T03:48:48.105Z,19.05
2022-09-24T03:51:21.588Z,18.50
2022-09-24T03:53:48.930Z,20.15
2022-09-24T03:56:16.296Z,19.98
2022-09-24T03:58:47.244Z,17.80
2022-09-24T04:01:15.871Z,17.73
2022-09-24T04:03:43.158Z,18.70
2022-09-24T04:06:10.415Z,18.52
2022-09-24T04:08:37.730Z,19.55
2022-09-24T04:11:05.166Z,18.95
2022-09-24T04:13:32.475Z,18.55
2022-09-24T04:16:04.294Z,18.52
2022-09-24T04:18:35.678Z,19.40
2022-09-24T04:21:05.961Z,18.40
2022-09-24T04:23:33.221Z,20.15
2022-09-24T04:26:02.198Z,19.20
2022-09-24T04:28:30.736Z,19.83
2022-09-24T04:30:58.492Z,20.30
2022-09-24T04:33:26.028Z,20.50
2022-09-24T04:35:53.335Z,21.25
2022-09-24T04:38:21.275Z,20.52
2022-09-24T04:40:49.598Z,22.42
2022-09-24T04:43:19.010Z,20.25
2022-09-24T04:45:46.532Z,22.70
2022-09-24T04:48:14.357Z,22.02
2022-09-24T04:50:45.773Z,19.88
2022-09-24T04:53:14.166Z,21.60
2022-09-24T04:55:41.906Z,20.25
2022-09-24T04:58:10.113Z,22.70
2022-09-24T05:00:37.748Z,20.25
2022-09-24T05:03:05.628Z,21.42
2022-09-24T05:05:34.415Z,22.58
2022-09-24T05:08:02.391Z,23.15
2022-09-24T05:10:34.534Z,21.20
2022-09-24T05:13:02.249Z,24.27
2022-09-24T05:15:29.651Z,20.75
2022-09-24T05:17:57.290Z,24.15
2022-09-24T05:20:25.263Z,20.95
2022-09-24T05:22:52.697Z,22.23
2022-09-24T05:25:21.538Z,22.60
2022-09-24T05:27:51.139Z,23.08
2022-09-24T05:30:20.667Z,21.88
2022-09-24T05:32:51.917Z,21.90
2022-09-24T05:35:21.034Z,23.70
2022-09-24T05:37:49.583Z,21.80
2022-09-24T05:40:35.802Z,25.13
2022-09-24T05:43:04.530Z,22.35
2022-09-24T05:45:32.647Z,23.52
2022-09-24T05:48:00.106Z,21.15
2022-09-24T05:50:27.883Z,21.70
2022-09-24T05:52:55.474Z,23.33
2022-09-24T05:55:22.858Z,24.80
2022-09-24T05:57:50.132Z,26.00
2022-09-24T06:00:17.371Z,26.40
2022-09-24T06:02:44.827Z,24.83
2022-09-24T06:05:12.862Z,22.20
2022-09-24T06:07:40.137Z,22.30
2022-09-24T06:10:08.182Z,25.05
2022-09-24T06:12:35.669Z,21.27
2022-09-24T06:15:03.447Z,23.70
2022-09-24T06:17:31.821Z,23.13
2022-09-24T06:19:59.306Z,24.88
2022-09-24T06:22:28.940Z,23.65
2022-09-24T06:24:56.558Z,23.38
2022-09-24T06:27:24.263Z,22.45
2022-09-24T06:29:51.538Z,24.10
2022-09-24T06:32:19.707Z,24.48
2022-09-24T06:34:47.484Z,25.02
2022-09-24T06:37:14.789Z,24.67
2022-09-24T06:39:42.598Z,22.80
2022-09-24T06:42:09.913Z,22.30
2022-09-24T06:44:37.278Z,22.98
2022-09-24T06:47:04.722Z,21.55
2022-09-24T06:49:34.228Z,22.05
2022-09-24T06:52:02.488Z,21.95
2022-09-24T06:54:29.826Z,21.73
2022-09-24T06:56:57.145Z,22.33
2022-09-24T06:59:24.422Z,21.20
2022-09-24T07:01:52.317Z,19.60
2022-09-24T07:04:19.764Z,20.35
2022-09-24T07:07:05.363Z,19.88
2022-09-24T07:09:32.653Z,20.05
2022-09-24T07:12:04.674Z,18.83
2022-09-24T07:14:31.976Z,17.00
2022-09-24T07:16:59.236Z,18.58
2022-09-24T07:19:26.465Z,19.17
2022-09-24T07:21:53.735Z,17.77
2022-09-24T07:24:20.942Z,16.88
2022-09-24T07:26:48.214Z,16.98
2022-09-24T07:29:16.090Z,16.90
2022-09-24T07:31:43.409Z,17.13
2022-09-24T07:34:10.764Z,15.82
2022-09-24T07:36:38.035Z,15.88
2022-09-24T07:39:05.468Z,14.20
2022-09-24T07:41:37.392Z,13.98
2022-09-24T07:44:08.292Z,15.50
2022-09-24T07:46:35.930Z,13.90
2022-09-24T07:49:03.801Z,17.83
2022-09-24T07:51:31.174Z,14.07
2022-09-24T07:53:58.528Z,12.75
2022-09-24T07:56:26.076Z,15.85
2022-09-24T07:58:53.886Z,14.10
2022-09-24T08:01:22.401Z,14.27
2022-09-24T08:03:51.879Z,15.15
2022-09-24T08:06:22.540Z,12.55
2022-09-24T08:08:52.506Z,13.13
2022-09-24T08:11:21.367Z,11.95
2022-09-24T08:13:48.727Z,11.85
2022-09-24T08:16:16.708Z,16.77
2022-09-24T08:18:44.098Z,13.07
2022-09-24T08:21:13.236Z,17.60
2022-09-24T08:23:41.019Z,11.60
2022-09-24T08:26:09.770Z,12.88
2022-09-24T08:28:37.884Z,12.00
2022-09-24T08:31:08.995Z,13.40
2022-09-24T08:33:37.179Z,13.18
2022-09-24T08:36:07.646Z,12.10
2022-09-24T08:38:35.111Z,12.90
2022-09-24T08:41:14.468Z,16.13
2022-09-24T08:44:02.298Z,15.63
2022-09-24T08:46:55.196Z,12.05
2022-09-24T08:49:27.457Z,11.90
2022-09-24T08:52:15.334Z,12.95
2022-09-24T08:54:44.867Z,14.00
2022-09-24T08:57:15.839Z,13.27
2022-09-24T08:59:47.042Z,11.60
2022-09-24T09:02:40.160Z,12.65
2022-09-24T09:05:37.108Z,11.60
2022-09-24T09:08:54.909Z,11.55
2022-09-24T09:11:23.790Z,12.82
2022-09-24T09:14:05.899Z,16.85
2022-09-24T09:16:51.555Z,13.13
2022-09-24T09:19:21.680Z,13.02
2022-09-24T09:21:54.648Z,16.58
2022-09-24T09:24:49.601Z,12.40
2022-09-24T09:27:18.227Z,11.30
2022-09-24T09:29:50.139Z,9.40
2022-09-24T09:32:47.195Z,9.82
2022-09-24T09:35:38.937Z,9.30
2022-09-24T09:38:23.331Z,8.77
2022-09-24T09:41:06.647Z,7.38
2022-09-24T09:43:35.287Z,6.40
2022-09-24T09:46:16.956Z,7.72
2022-09-24T09:48:47.806Z,7.20
2022-09-24T09:51:23.348Z,8.05
2022-09-24T09:53:55.863Z,8.38
2022-09-24T09:56:29.965Z,7.32
2022-09-24T09:59:16.488Z,7.95
2022-09-24T10:01:46.737Z,7.82
2022-09-24T10:04:35.157Z,8.02
2022-09-24T10:07:07.508Z,7.20
2022-09-24T10:09:35.453Z,8.55
2022-09-24T10:12:32.239Z,8.02
2022-09-24T10:15:14.922Z,6.88
2022-09-24T10:17:43.834Z,9.02
2022-09-24T10:20:27.449Z,6.63
2022-09-24T10:23:06.865Z,6.18
2022-09-24T10:25:37.726Z,7.68
2022-09-24T10:28:28.008Z,5.95
2022-09-24T10:31:00.200Z,5.65
2022-09-24T10:33:35.650Z,5.78
2022-09-24T10:36:12.977Z,13.75
2022-09-24T10:38:40.391Z,5.68
2022-09-24T10:41:28.620Z,8.68
2022-09-24T10:43:58.000Z,6.53
2022-09-24T10:47:04.499Z,5.90
2022-09-24T10:49:47.921Z,6.10
2022-09-24T10:52:33.192Z,6.13
2022-09-24T10:55:19.573Z,6.82
2022-09-24T10:58:31.182Z,7.55
2022-09-24T11:01:01.300Z,6.75
2022-09-24T11:04:20.237Z,9.20
2022-09-24T11:07:09.374Z,8.00
2022-09-24T11:10:02.801Z,9.45
2022-09-24T11:13:02.649Z,11.00
2022-09-24T11:16:03.713Z,7.82
2022-09-24T11:18:57.107Z,21.15
2022-09-24T11:21:49.332Z,7.15
2022-09-24T11:24:53.896Z,9.15
2022-09-24T11:27:39.708Z,8.52
2022-09-24T11:30:09.906Z,9.55
2022-09-24T11:32:57.456Z,8.73
2022-09-24T11:36:04.248Z,7.75
2022-09-24T11:38:34.662Z,10.07
2022-09-24T11:41:31.363Z,8.02
2022-09-24T11:44:23.125Z,8.15
2022-09-24T11:47:20.904Z,10.50
2022-09-24T11:50:05.150Z,9.82
2022-09-24T11:52:43.560Z,7.13
2022-09-24T11:55:39.702Z,12.40
2022-09-24T11:58:29.982Z,8.52
2022-09-24T12:01:14.254Z,8.43
2022-09-24T12:03:58.283Z,8.30
2022-09-24T12:06:31.368Z,6.93
2022-09-24T12:09:27.831Z,15.70
2022-09-24T12:12:03.660Z,8.10
2022-09-24T12:14:43.635Z,8.27
2022-09-24T12:17:18.941Z,8.80
2022-09-24T12:19:55.842Z,9.15
2022-09-24T12:22:24.700Z,8.35
2022-09-24T12:24:54.127Z,9.30
2022-09-24T12:27:30.333Z,8.70
2022-09-24T12:30:41.091Z,8.82
2022-09-24T12:33:14.519Z,8.85
2022-09-24T12:36:04.492Z,8.63
2022-09-24T12:38:37.438Z,8.40
2022-09-24T12:41:24.486Z,8.18
2022-09-24T12:43:58.610Z,8.05
2022-09-24T12:46:35.487Z,11.15
2022-09-24T12:49:03.076Z,8.50
2022-09-24T12:51:38.329Z,9.07
2022-09-24T12:54:43.513Z,7.60
2022-09-24T12:57:42.440Z,8.98
2022-09-24T13:00:45.769Z,8.13
2022-09-24T13:03:46.055Z,7.82
2022-09-24T13:06:37.994Z,8.27
2022-09-24T13:09:25.997Z,7.47
2022-09-24T13:12:22.689Z,7.05
2022-09-24T13:15:04.113Z,7.85
2022-09-24T13:17:34.032Z,8.52
2022-09-24T13:20:08.611Z,8.18
2022-09-24T13:22:37.692Z,7.63
2022-09-24T13:25:25.839Z,7.38
2022-09-24T13:27:59.646Z,10.02
2022-09-24T13:30:47.128Z,8.13
2022-09-24T13:33:31.926Z,8.18
2022-09-24T13:36:11.645Z,7.85
2022-09-24T13:39:19.492Z,7.35
2022-09-24T13:42:17.456Z,7.72
2022-09-24T13:44:52.491Z,8.02
2022-09-24T13:47:36.272Z,7.30
2022-09-24T13:50:18.024Z,7.03
2022-09-24T13:52:54.270Z,7.05
2022-09-24T13:55:39.621Z,6.78
2022-09-24T13:58:26.063Z,7.20
2022-09-24T14:00:54.386Z,7.45
2022-09-24T14:03:36.581Z,7.30
2022-09-24T14:06:21.792Z,7.00
2022-09-24T14:08:49.540Z,6.95
2022-09-24T14:11:24.706Z,7.60
2022-09-24T14:13:55.040Z,6.93
2022-09-24T14:16:24.339Z,9.70
2022-09-24T14:19:03.195Z,8.95
2022-09-24T14:21:44.011Z,8.27
2022-09-24T14:24:42.922Z,8.55
2022-09-24T14:27:17.527Z,9.77
2022-09-24T14:29:49.744Z,7.45
2022-09-24T14:32:28.083Z,6.82
2022-09-24T14:34:59.331Z,8.63
2022-09-24T14:37:32.208Z,8.77
2022-09-24T14:40:07.071Z,8.98
2022-09-24T14:43:03.284Z,8.48
2022-09-24T14:45:37.758Z,8.32
2022-09-24T14:48:17.275Z,7.78
2022-09-24T14:50:44.519Z,8.45
2022-09-24T14:53:24.416Z,9.63
2022-09-24T14:55:52.003Z,9.35
2022-09-24T14:58:28.500Z,9.48
2022-09-24T15:00:58.932Z,10.07
2022-09-24T15:03:56.398Z,9.98
2022-09-24T15:06:28.867Z,9.30
2022-09-24T15:09:04.997Z,10.35
2022-09-24T15:11:37.311Z,10.43
2022-09-24T15:14:16.844Z,9.95
2022-09-24T15:16:47.022Z,12.68
2022-09-24T15:19:23.347Z,11.15
2022-09-24T15:21:52.862Z,10.45
2022-09-24T15:24:21.113Z,13.70
2022-09-24T15:27:03.870Z,12.05
2022-09-24T15:29:31.674Z,11.43
2022-09-24T15:31:59.362Z,10.70
2022-09-24T15:34:27.390Z,10.02
2022-09-24T15:36:59.002Z,11.43
2022-09-24T15:39:27.972Z,10.85
2022-09-24T15:41:55.189Z,12.15
2022-09-24T15:44:29.743Z,13.25
2022-09-24T15:47:00.427Z,13.63
2022-09-24T15:49:27.719Z,12.30
2022-09-24T15:52:15.721Z,12.40
2022-09-24T15:54:43.007Z,11.88
2022-09-24T15:57:12.727Z,12.77
2022-09-24T15:59:40.401Z,12.57
2022-09-24T16:02:17.384Z,13.38
2022-09-24T16:04:44.795Z,14.52
2022-09-24T16:07:12.171Z,13.20
2022-09-24T16:09:39.725Z,12.35
2022-09-24T16:12:07.350Z,13.57
2022-09-24T16:14:34.652Z,14.32
2022-09-24T16:17:01.979Z,14.20
2022-09-24T16:19:29.517Z,14.13
2022-09-24T16:21:56.786Z,14.70
2022-09-24T16:24:24.033Z,13.90
2022-09-24T16:26:51.553Z,14.15
2022-09-24T16:29:19.873Z,14.55
2022-09-24T16:31:47.505Z,14.48
2022-09-24T16:34:14.913Z,14.57
2022-09-24T16:36:42.221Z,13.63
2022-09-24T16:39:09.624Z,14.73
2022-09-24T16:41:37.898Z,13.60
2022-09-24T16:44:05.255Z,13.80
2022-09-24T16:46:32.699Z,13.25
2022-09-24T16:48:59.998Z,16.02
2022-09-24T16:51:27.344Z,15.63
2022-09-24T16:53:55.957Z,15.18
2022-09-24T16:56:23.564Z,14.50
2022-09-24T16:58:51.460Z,14.65
2022-09-24T17:01:21.039Z,14.70
2022-09-24T17:03:55.756Z,14.77
2022-09-24T17:06:26.351Z,15.68
2022-09-24T17:09:12.112Z,15.68
2022-09-24T17:11:42.624Z,15.88
2022-09-24T17:14:13.099Z,14.77
2022-09-24T17:16:41.347Z,14.48
2022-09-24T17:19:12.520Z,15.40
2022-09-24T17:21:42.338Z,15.27
2022-09-24T17:24:10.040Z,16.05
2022-09-24T17:26:38.208Z,15.05
2022-09-24T17:29:05.680Z,16.25
2022-09-24T17:31:33.160Z,14.88
2022-09-24T17:34:02.962Z,15.35
2022-09-24T17:36:32.427Z,14.98
2022-09-24T17:39:01.022Z,14.52
2022-09-24T17:41:29.145Z,16.88
2022-09-24T17:43:59.799Z,15.02
2022-09-24T17:46:29.870Z,16.45
2022-09-24T17:48:59.428Z,17.75
2022-09-24T17:51:36.174Z,14.85
2022-09-24T17:54:06.828Z,16.83
2022-09-24T17:56:38.682Z,15.38
2022-09-24T17:59:07.972Z,14.70
2022-09-24T18:01:37.399Z,15.45
2022-09-24T18:04:07.308Z,17.23
2022-09-24T18:06:37.593Z,14.82
2022-09-24T18:09:05.482Z,15.73
2022-09-24T18:11:37.793Z,16.13
2022-09-24T18:14:05.323Z,17.45
2022-09-24T18:16:33.463Z,17.02
2022-09-24T18:19:02.374Z,17.08
2022-09-24T18:21:30.873Z,16.90
2022-09-24T18:24:00.259Z,17.00
2022-09-24T18:26:32.636Z,17.00
2022-09-24T18:29:03.999Z,14.38
2022-09-24T18:31:32.366Z,12.65
2022-09-24T18:34:06.048Z,11.57
2022-09-24T18:36:35.428Z,12.35
2022-09-24T18:39:04.136Z,9.48
2022-09-24T18:41:32.036Z,8.48
2022-09-24T18:44:00.103Z,8.38
2022-09-24T18:46:29.767Z,7.57
2022-09-24T18:48:58.374Z,8.35
2022-09-24T18:51:34.159Z,9.07
2022-09-24T18:54:04.082Z,7.38
2022-09-24T18:56:31.687Z,8.60
2022-09-24T18:59:21.113Z,8.68
2022-09-24T19:01:50.629Z,8.23
2022-09-24T19:04:19.038Z,8.63
2022-09-24T19:06:51.747Z,9.13
2022-09-24T19:09:20.247Z,8.70
2022-09-24T19:11:48.810Z,8.82
2022-09-24T19:14:18.326Z,8.98
2022-09-24T19:16:45.926Z,8.38
2022-09-24T19:19:13.330Z,8.90
2022-09-24T19:21:42.104Z,9.43
2022-09-24T19:24:09.904Z,11.20
2022-09-24T19:26:37.968Z,9.95
2022-09-24T19:29:05.719Z,8.98
2022-09-24T19:31:38.999Z,9.57
2022-09-24T19:34:08.430Z,9.45
2022-09-24T19:36:42.760Z,8.90
2022-09-24T19:39:12.912Z,7.68
2022-09-24T19:41:40.266Z,8.18
2022-09-24T19:44:09.039Z,8.50
2022-09-24T19:46:38.295Z,8.60
2022-09-24T19:49:06.252Z,8.00
2022-09-24T19:51:34.769Z,8.35
2022-09-24T19:54:06.377Z,8.05
2022-09-24T19:56:34.532Z,8.52
2022-09-24T19:59:02.739Z,7.95
2022-09-24T20:01:31.739Z,7.18
2022-09-24T20:04:02.038Z,6.38
2022-09-24T20:06:33.560Z,6.20
2022-09-24T20:09:01.073Z,6.13
2022-09-24T20:11:32.134Z,5.75
2022-09-24T20:14:00.205Z,5.00
2022-09-24T20:16:30.934Z,3.80
2022-09-24T20:18:59.137Z,3.65
2022-09-24T20:21:28.309Z,2.90
2022-09-24T20:23:57.857Z,2.65
2022-09-24T20:26:44.570Z,2.90
2022-09-24T20:29:13.642Z,1.98
2022-09-24T20:31:51.761Z,2.33
2022-09-24T20:34:24.880Z,2.95
2022-09-24T20:36:52.383Z,3.17
2022-09-24T20:39:22.773Z,3.03
2022-09-24T20:41:50.152Z,3.45
2022-09-24T20:44:18.027Z,4.80
2022-09-24T20:46:45.325Z,5.57
2022-09-24T20:49:24.406Z,5.03
2022-09-24T20:51:57.025Z,5.70
2022-09-24T20:54:26.351Z,5.63
2022-09-24T20:56:53.723Z,5.45
2022-09-24T20:59:21.010Z,6.40
2022-09-24T21:01:49.417Z,5.90
2022-09-24T21:04:19.789Z,6.63
2022-09-24T21:06:48.117Z,7.05
2022-09-24T21:09:17.012Z,8.60
2022-09-24T21:11:44.315Z,7.45
2022-09-24T21:14:12.248Z,7.78
2022-09-24T21:16:39.664Z,7.00
2022-09-24T21:19:07.906Z,6.38
2022-09-24T21:21:38.961Z,8.32
2022-09-24T21:24:12.376Z,8.55
2022-09-24T21:26:40.482Z,7.82
2022-09-24T21:29:12.931Z,8.20
2022-09-24T21:31:41.963Z,8.25
2022-09-24T21:34:10.677Z,8.50
2022-09-24T21:36:44.297Z,9.77
2022-09-24T21:39:22.803Z,10.82
2022-09-24T21:41:51.233Z,8.63
2022-09-24T21:44:19.197Z,8.25
2022-09-24T21:46:50.794Z,8.48
2022-09-24T21:49:19.366Z,8.00
2022-09-24T21:51:46.962Z,9.82
2022-09-24T21:54:16.887Z,9.70
2022-09-24T21:56:44.905Z,7.93
2022-09-24T21:59:30.699Z,13.25
2022-09-24T22:01:58.864Z,8.25
2022-09-24T22:04:27.578Z,9.70
2022-09-24T22:06:54.934Z,11.50
2022-09-24T22:09:22.315Z,12.68
2022-09-24T22:11:52.483Z,8.52
2022-09-24T22:14:19.866Z,9.68
2022-09-24T22:16:47.224Z,10.23
2022-09-24T22:19:14.793Z,16.13
2022-09-24T22:21:42.084Z,8.70
2022-09-24T22:24:09.728Z,9.23
2022-09-24T22:26:37.005Z,6.95
2022-09-24T22:29:04.345Z,6.20
2022-09-24T22:31:32.036Z,6.07
2022-09-24T22:34:17.938Z,6.68
2022-09-24T22:36:45.200Z,8.90
2022-09-24T22:39:12.487Z,10.65
2022-09-24T22:41:42.870Z,7.25
2022-09-24T22:44:11.503Z,4.80
2022-09-24T22:46:39.482Z,7.20
2022-09-24T22:49:07.343Z,5.18
2022-09-24T22:51:35.293Z,5.43
2022-09-24T22:54:02.522Z,5.82
2022-09-24T22:56:30.013Z,7.88
2022-09-24T22:58:59.850Z,7.13
2022-09-24T23:01:31.243Z,7.20
2022-09-24T23:03:59.377Z,6.30
2022-09-24T23:06:27.590Z,8.70
2022-09-24T23:08:55.891Z,5.22
2022-09-24T23:11:29.130Z,4.13
2022-09-24T23:13:59.254Z,7.82
2022-09-24T23:16:29.124Z,7.72
2022-09-24T23:18:59.055Z,4.70
2022-09-24T23:21:28.623Z,5.63
2022-09-24T23:23:58.003Z,6.13
2022-09-24T23:26:26.558Z,10.07
2022-09-24T23:28:55.855Z,8.60
2022-09-24T23:31:26.038Z,7.18
2022-09-24T23:33:58.179Z,6.18
2022-09-24T23:36:26.950Z,7.03
2022-09-24T23:38:54.423Z,8.52
2022-09-24T23:41:21.769Z,5.15
2022-09-24T23:43:49.692Z,8.25
2022-09-24T23:46:17.760Z,6.15
2022-09-24T23:48:45.091Z,9.50
2022-09-24T23:51:12.497Z,8.55
2022-09-24T23:53:41.259Z,8.65
2022-09-24T23:56:08.722Z,6.55
2022-09-24T23:58:36.491Z,7.15
